Terminal Aerodrome Forecast
Issued by NWS

Home | Current Version | Previous Version | Text Only | Print | Product List | Glossary On
Versions: 1 2 3 4 5 6 7 8 9 10 11 12 13 14 15 16 17 18 19 20 21 22 23 24 25
000
FTUS44 KTSA 242300
TAFMLC
TAF
KMLC 242330Z 2500/2524 VRB05KT P6SM SCT020 OVC050
      TEMPO 2500/2504 BKN020
     FM250800 17005KT 4SM BR OVC012
      TEMPO 2509/2513 OVC007
     FM251500 18008KT P6SM BKN020
     FM252000 17008KT P6SM BKN035
      TEMPO 2520/2524 P6SM TS BKN025CB=

USA.gov is the U.S. government's official web portal to all federal, state and local government web resources and services.